sensor_id;sensor_type;location;lat;lon;timestamp;temperature;humidity
10848;DHT22;5477;48.806;9.154;2024-03-17T00:01:03;6.80;99.90
10848;DHT22;5477;48.806;9.154;2024-03-17T00:03:30;6.80;99.90
10848;DHT22;5477;48.806;9.154;2024-03-17T00:05:57;6.70;99.90
10848;DHT22;5477;48.806;9.154;2024-03-17T00:08:25;6.70;99.90
10848;DHT22;5477;48.806;9.154;2024-03-17T00:10:52;6.60;99.90
10848;DHT22;5477;48.806;9.154;2024-03-17T00:13:18;6.60;99.90
10848;DHT22;5477;48.806;9.154;2024-03-17T00:15:46;6.60;99.90
10848;DHT22;5477;48.806;9.154;2024-03-17T00:18:12;6.60;99.90
10848;DHT22;5477;48.806;9.154;2024-03-17T00:20:40;6.50;99.90
10848;DHT22;5477;48.806;9.154;2024-03-17T00:23:06;6.50;99.90
10848;DHT22;5477;48.806;9.154;2024-03-17T00:25:36;6.50;99.90
10848;DHT22;5477;48.806;9.154;2024-03-17T00:28:02;6.50;99.90
10848;DHT22;5477;48.806;9.154;2024-03-17T00:30:29;6.50;99.90
10848;DHT22;5477;48.806;9.154;2024-03-17T00:32:57;6.50;99.90
10848;DHT22;5477;48.806;9.154;2024-03-17T00:35:25;6.50;99.90
10848;DHT22;5477;48.806;9.154;2024-03-17T00:37:51;6.50;99.90
10848;DHT22;5477;48.806;9.154;2024-03-17T00:40:19;6.50;99.90
10848;DHT22;5477;48.806;9.154;2024-03-17T00:42:47;6.60;99.90
10848;DHT22;5477;48.806;9.154;2024-03-17T00:45:15;6.60;99.90
10848;DHT22;5477;48.806;9.154;2024-03-17T00:47:41;6.60;99.90
10848;DHT22;5477;48.806;9.154;2024-03-17T00:50:09;6.60;99.90
10848;DHT22;5477;48.806;9.154;2024-03-17T00:52:37;6.50;99.90
10848;DHT22;5477;48.806;9.154;2024-03-17T00:55:05;6.60;99.90
10848;DHT22;5477;48.806;9.154;2024-03-17T00:57:31;6.50;99.90
10848;DHT22;5477;48.806;9.154;2024-03-17T01:00:00;6.40;99.90
10848;DHT22;5477;48.806;9.154;2024-03-17T01:02:26;6.40;99.90
10848;DHT22;5477;48.806;9.154;2024-03-17T01:04:53;6.40;99.90
10848;DHT22;5477;48.806;9.154;2024-03-17T01:07:19;6.40;99.90
10848;DHT22;5477;48.806;9.154;2024-03-17T01:09:47;6.30;99.90
10848;DHT22;5477;48.806;9.154;2024-03-17T01:12:13;6.30;99.90
10848;DHT22;5477;48.806;9.154;2024-03-17T01:14:40;6.30;99.90
10848;DHT22;5477;48.806;9.154;2024-03-17T01:17:08;6.30;99.90
10848;DHT22;5477;48.806;9.154;2024-03-17T01:19:35;6.40;99.90
10848;DHT22;5477;48.806;9.154;2024-03-17T01:22:01;6.40;99.90
10848;DHT22;5477;48.806;9.154;2024-03-17T01:24:28;6.40;99.90
10848;DHT22;5477;48.806;9.154;2024-03-17T01:26:57;6.40;99.90
10848;DHT22;5477;48.806;9.154;2024-03-17T01:29:25;6.30;99.90
10848;DHT22;5477;48.806;9.154;2024-03-17T01:31:51;6.30;99.90
10848;DHT22;5477;48.806;9.154;2024-03-17T01:34:20;6.20;99.90
10848;DHT22;5477;48.806;9.154;2024-03-17T01:36:46;6.10;99.90
10848;DHT22;5477;48.806;9.154;2024-03-17T01:39:13;6.20;99.90
10848;DHT22;5477;48.806;9.154;2024-03-17T01:41:40;6.10;99.90
10848;DHT22;5477;48.806;9.154;2024-03-17T01:44:07;6.10;99.90
10848;DHT22;5477;48.806;9.154;2024-03-17T01:46:42;6.00;99.90
10848;DHT22;5477;48.806;9.154;2024-03-17T01:49:09;6.00;99.90
10848;DHT22;5477;48.806;9.154;2024-03-17T01:51:37;6.00;99.90
10848;DHT22;5477;48.806;9.154;2024-03-17T01:54:04;6.00;99.90
10848;DHT22;5477;48.806;9.154;2024-03-17T01:56:31;5.90;99.90
10848;DHT22;5477;48.806;9.154;2024-03-17T01:58:58;5.90;99.90
10848;DHT22;5477;48.806;9.154;2024-03-17T02:01:24;5.90;99.90
10848;DHT22;5477;48.806;9.154;2024-03-17T02:03:52;5.90;99.90
10848;DHT22;5477;48.806;9.154;2024-03-17T02:06:18;6.00;99.90
10848;DHT22;5477;48.806;9.154;2024-03-17T02:08:51;6.00;99.90
10848;DHT22;5477;48.806;9.154;2024-03-17T02:11:25;6.00;99.90
10848;DHT22;5477;48.806;9.154;2024-03-17T02:13:53;6.00;99.90
10848;DHT22;5477;48.806;9.154;2024-03-17T02:16:19;6.00;99.90
10848;DHT22;5477;48.806;9.154;2024-03-17T02:18:46;5.90;99.90
10848;DHT22;5477;48.806;9.154;2024-03-17T02:21:14;5.90;99.90
10848;DHT22;5477;48.806;9.154;2024-03-17T02:23:43;5.90;99.90
10848;DHT22;5477;48.806;9.154;2024-03-17T02:26:10;6.00;99.90
10848;DHT22;5477;48.806;9.154;2024-03-17T02:28:40;6.10;99.90
10848;DHT22;5477;48.806;9.154;2024-03-17T02:31:09;6.20;99.90
10848;DHT22;5477;48.806;9.154;2024-03-17T02:33:36;6.20;99.90
10848;DHT22;5477;48.806;9.154;2024-03-17T02:36:04;6.20;99.90
10848;DHT22;5477;48.806;9.154;2024-03-17T02:38:33;6.20;99.90
10848;DHT22;5477;48.806;9.154;2024-03-17T02:41:19;6.10;99.90
10848;DHT22;5477;48.806;9.154;2024-03-17T02:43:47;6.10;99.90
10848;DHT22;5477;48.806;9.154;2024-03-17T02:46:15;6.10;99.90
10848;DHT22;5477;48.806;9.154;2024-03-17T02:48:43;6.10;99.90
10848;DHT22;5477;48.806;9.154;2024-03-17T02:51:13;6.10;99.90
10848;DHT22;5477;48.806;9.154;2024-03-17T02:53:41;6.00;99.90
10848;DHT22;5477;48.806;9.154;2024-03-17T02:56:09;6.10;99.90
10848;DHT22;5477;48.806;9.154;2024-03-17T02:58:39;6.10;99.90
10848;DHT22;5477;48.806;9.154;2024-03-17T03:01:07;6.10;99.90
10848;DHT22;5477;48.806;9.154;2024-03-17T03:03:35;6.20;99.90
10848;DHT22;5477;48.806;9.154;2024-03-17T03:06:03;6.20;99.90
10848;DHT22;5477;48.806;9.154;2024-03-17T03:08:35;6.20;99.90
10848;DHT22;5477;48.806;9.154;2024-03-17T03:11:03;6.30;99.90
10848;DHT22;5477;48.806;9.154;2024-03-17T03:13:31;6.30;99.90
10848;DHT22;5477;48.806;9.154;2024-03-17T03:15:59;6.20;99.90
10848;DHT22;5477;48.806;9.154;2024-03-17T03:18:26;6.20;99.90
10848;DHT22;5477;48.806;9.154;2024-03-17T03:20:53;6.10;99.90
10848;DHT22;5477;48.806;9.154;2024-03-17T03:23:21;6.00;99.90
10848;DHT22;5477;48.806;9.154;2024-03-17T03:25:54;6.00;99.90
10848;DHT22;5477;48.806;9.154;2024-03-17T03:28:21;5.90;99.90
10848;DHT22;5477;48.806;9.154;2024-03-17T03:30:48;6.00;99.90
10848;DHT22;5477;48.806;9.154;2024-03-17T03:33:17;6.00;99.90
10848;DHT22;5477;48.806;9.154;2024-03-17T03:35:44;6.00;99.90
10848;DHT22;5477;48.806;9.154;2024-03-17T03:38:12;5.90;99.90
10848;DHT22;5477;48.806;9.154;2024-03-17T03:40:40;5.90;99.90
10848;DHT22;5477;48.806;9.154;2024-03-17T03:43:07;5.80;99.90
10848;DHT22;5477;48.806;9.154;2024-03-17T03:45:35;5.80;99.90
10848;DHT22;5477;48.806;9.154;2024-03-17T03:48:03;5.70;99.90
10848;DHT22;5477;48.806;9.154;2024-03-17T03:50:32;5.70;99.90
10848;DHT22;5477;48.806;9.154;2024-03-17T03:52:59;5.70;99.90
10848;DHT22;5477;48.806;9.154;2024-03-17T03:55:26;5.70;99.90
10848;DHT22;5477;48.806;9.154;2024-03-17T03:57:53;5.70;99.90
10848;DHT22;5477;48.806;9.154;2024-03-17T04:00:20;5.70;99.90
10848;DHT22;5477;48.806;9.154;2024-03-17T04:02:49;5.60;99.90
10848;DHT22;5477;48.806;9.154;2024-03-17T04:05:17;5.60;99.90
10848;DHT22;5477;48.806;9.154;2024-03-17T04:07:46;5.60;99.90
10848;DHT22;5477;48.806;9.154;2024-03-17T04:10:14;5.60;99.90
10848;DHT22;5477;48.806;9.154;2024-03-17T04:12:42;5.60;99.90
10848;DHT22;5477;48.806;9.154;2024-03-17T04:15:09;5.50;99.90
10848;DHT22;5477;48.806;9.154;2024-03-17T04:17:37;5.60;99.90
10848;DHT22;5477;48.806;9.154;2024-03-17T04:20:05;5.50;99.90
10848;DHT22;5477;48.806;9.154;2024-03-17T04:22:34;5.60;99.90
10848;DHT22;5477;48.806;9.154;2024-03-17T04:25:04;5.60;99.90
10848;DHT22;5477;48.806;9.154;2024-03-17T04:27:31;5.60;99.90
10848;DHT22;5477;48.806;9.154;2024-03-17T04:29:59;5.60;99.90
10848;DHT22;5477;48.806;9.154;2024-03-17T04:32:27;5.60;99.90
10848;DHT22;5477;48.806;9.154;2024-03-17T04:34:54;5.50;99.90
10848;DHT22;5477;48.806;9.154;2024-03-17T04:37:21;5.50;99.90
10848;DHT22;5477;48.806;9.154;2024-03-17T04:39:48;5.60;99.90
10848;DHT22;5477;48.806;9.154;2024-03-17T04:42:18;5.60;99.90
10848;DHT22;5477;48.806;9.154;2024-03-17T04:44:45;5.60;99.90
10848;DHT22;5477;48.806;9.154;2024-03-17T04:47:13;5.60;99.90
10848;DHT22;5477;48.806;9.154;2024-03-17T04:49:41;5.60;99.90
10848;DHT22;5477;48.806;9.154;2024-03-17T04:52:10;5.60;99.90
10848;DHT22;5477;48.806;9.154;2024-03-17T04:54:37;5.50;99.90
10848;DHT22;5477;48.806;9.154;2024-03-17T04:57:07;5.50;99.90
10848;DHT22;5477;48.806;9.154;2024-03-17T04:59:35;5.40;99.90
10848;DHT22;5477;48.806;9.154;2024-03-17T05:02:04;5.40;99.90
10848;DHT22;5477;48.806;9.154;2024-03-17T05:04:31;5.50;99.90
10848;DHT22;5477;48.806;9.154;2024-03-17T05:06:58;5.40;99.90
10848;DHT22;5477;48.806;9.154;2024-03-17T05:09:25;5.40;99.90
10848;DHT22;5477;48.806;9.154;2024-03-17T05:11:52;5.40;99.90
10848;DHT22;5477;48.806;9.154;2024-03-17T05:14:19;5.40;99.90
10848;DHT22;5477;48.806;9.154;2024-03-17T05:16:49;5.40;99.90
10848;DHT22;5477;48.806;9.154;2024-03-17T05:19:16;5.40;99.90
10848;DHT22;5477;48.806;9.154;2024-03-17T05:21:44;5.30;99.90
10848;DHT22;5477;48.806;9.154;2024-03-17T05:24:11;5.20;99.90
10848;DHT22;5477;48.806;9.154;2024-03-17T05:26:38;5.20;99.90
10848;DHT22;5477;48.806;9.154;2024-03-17T05:29:05;5.20;99.90
10848;DHT22;5477;48.806;9.154;2024-03-17T05:31:33;5.20;99.90
10848;DHT22;5477;48.806;9.154;2024-03-17T05:34:01;5.20;99.90
10848;DHT22;5477;48.806;9.154;2024-03-17T05:36:28;5.30;99.90
10848;DHT22;5477;48.806;9.154;2024-03-17T05:38:58;5.30;99.90
10848;DHT22;5477;48.806;9.154;2024-03-17T05:41:25;5.30;99.90
10848;DHT22;5477;48.806;9.154;2024-03-17T05:43:54;5.40;99.90
10848;DHT22;5477;48.806;9.154;2024-03-17T05:46:24;5.50;99.90
10848;DHT22;5477;48.806;9.154;2024-03-17T05:48:52;5.50;99.90
10848;DHT22;5477;48.806;9.154;2024-03-17T05:51:21;5.60;99.90
10848;DHT22;5477;48.806;9.154;2024-03-17T05:53:51;5.70;99.90
10848;DHT22;5477;48.806;9.154;2024-03-17T05:56:18;5.70;99.90
10848;DHT22;5477;48.806;9.154;2024-03-17T05:58:45;5.70;99.90
10848;DHT22;5477;48.806;9.154;2024-03-17T06:01:12;5.70;99.90
10848;DHT22;5477;48.806;9.154;2024-03-17T06:03:39;5.70;99.90
10848;DHT22;5477;48.806;9.154;2024-03-17T06:06:07;5.60;99.90
10848;DHT22;5477;48.806;9.154;2024-03-17T06:08:37;5.50;99.90
10848;DHT22;5477;48.806;9.154;2024-03-17T06:11:04;5.50;99.90
10848;DHT22;5477;48.806;9.154;2024-03-17T06:13:32;5.50;99.90
10848;DHT22;5477;48.806;9.154;2024-03-17T06:15:59;5.50;99.90
10848;DHT22;5477;48.806;9.154;2024-03-17T06:18:27;5.50;99.90
10848;DHT22;5477;48.806;9.154;2024-03-17T06:20:54;5.50;99.90
10848;DHT22;5477;48.806;9.154;2024-03-17T06:23:24;5.60;99.90
10848;DHT22;5477;48.806;9.154;2024-03-17T06:25:54;5.70;99.90
10848;DHT22;5477;48.806;9.154;2024-03-17T06:28:22;5.60;99.90
10848;DHT22;5477;48.806;9.154;2024-03-17T06:30:57;5.70;99.90
10848;DHT22;5477;48.806;9.154;2024-03-17T06:33:26;5.70;99.90
10848;DHT22;5477;48.806;9.154;2024-03-17T06:35:54;5.80;99.90
10848;DHT22;5477;48.806;9.154;2024-03-17T06:38:22;5.80;99.90
10848;DHT22;5477;48.806;9.154;2024-03-17T06:40:50;5.80;99.90
10848;DHT22;5477;48.806;9.154;2024-03-17T06:43:19;5.90;99.90
10848;DHT22;5477;48.806;9.154;2024-03-17T06:45:56;6.00;99.90
10848;DHT22;5477;48.806;9.154;2024-03-17T06:48:24;6.10;99.90
10848;DHT22;5477;48.806;9.154;2024-03-17T06:50:52;6.20;99.90
10848;DHT22;5477;48.806;9.154;2024-03-17T06:53:20;6.20;99.90
10848;DHT22;5477;48.806;9.154;2024-03-17T06:55:54;6.30;99.90
10848;DHT22;5477;48.806;9.154;2024-03-17T06:58:23;6.50;99.90
10848;DHT22;5477;48.806;9.154;2024-03-17T07:00:57;6.60;99.90
10848;DHT22;5477;48.806;9.154;2024-03-17T07:03:25;6.80;99.90
10848;DHT22;5477;48.806;9.154;2024-03-17T07:05:53;7.00;99.90
10848;DHT22;5477;48.806;9.154;2024-03-17T07:08:21;7.20;99.90
10848;DHT22;5477;48.806;9.154;2024-03-17T07:10:56;7.40;99.90
10848;DHT22;5477;48.806;9.154;2024-03-17T07:13:24;7.40;99.90
10848;DHT22;5477;48.806;9.154;2024-03-17T07:15:51;7.60;99.90
10848;DHT22;5477;48.806;9.154;2024-03-17T07:18:18;7.70;99.90
10848;DHT22;5477;48.806;9.154;2024-03-17T07:20:45;7.80;99.90
10848;DHT22;5477;48.806;9.154;2024-03-17T07:23:13;7.90;99.90
10848;DHT22;5477;48.806;9.154;2024-03-17T07:25:41;8.00;99.90
10848;DHT22;5477;48.806;9.154;2024-03-17T07:28:09;8.20;99.90
10848;DHT22;5477;48.806;9.154;2024-03-17T07:30:37;8.30;99.90
10848;DHT22;5477;48.806;9.154;2024-03-17T07:33:04;8.50;99.90
10848;DHT22;5477;48.806;9.154;2024-03-17T07:35:31;8.50;99.90
10848;DHT22;5477;48.806;9.154;2024-03-17T07:37:59;8.60;99.90
10848;DHT22;5477;48.806;9.154;2024-03-17T07:40:26;8.70;99.90
10848;DHT22;5477;48.806;9.154;2024-03-17T07:42:53;8.80;99.90
10848;DHT22;5477;48.806;9.154;2024-03-17T07:45:20;8.90;99.90
10848;DHT22;5477;48.806;9.154;2024-03-17T07:47:50;9.00;99.90
10848;DHT22;5477;48.806;9.154;2024-03-17T07:50:18;9.10;99.90
10848;DHT22;5477;48.806;9.154;2024-03-17T07:52:45;9.20;99.90
10848;DHT22;5477;48.806;9.154;2024-03-17T07:55:12;9.40;99.90
10848;DHT22;5477;48.806;9.154;2024-03-17T07:57:39;9.60;99.90
10848;DHT22;5477;48.806;9.154;2024-03-17T08:00:09;9.70;99.90
10848;DHT22;5477;48.806;9.154;2024-03-17T08:02:45;9.70;99.90
10848;DHT22;5477;48.806;9.154;2024-03-17T08:05:14;9.90;99.90
10848;DHT22;5477;48.806;9.154;2024-03-17T08:07:41;10.00;99.90
10848;DHT22;5477;48.806;9.154;2024-03-17T08:10:08;10.10;99.90
10848;DHT22;5477;48.806;9.154;2024-03-17T08:12:35;10.30;99.90
10848;DHT22;5477;48.806;9.154;2024-03-17T08:15:03;10.50;99.90
10848;DHT22;5477;48.806;9.154;2024-03-17T08:17:30;10.60;99.90
10848;DHT22;5477;48.806;9.154;2024-03-17T08:19:57;10.80;99.90
10848;DHT22;5477;48.806;9.154;2024-03-17T08:22:26;11.00;99.90
10848;DHT22;5477;48.806;9.154;2024-03-17T08:24:53;11.20;99.90
10848;DHT22;5477;48.806;9.154;2024-03-17T08:27:20;11.20;99.90
10848;DHT22;5477;48.806;9.154;2024-03-17T08:29:48;11.20;99.90
10848;DHT22;5477;48.806;9.154;2024-03-17T08:32:15;11.20;99.90
10848;DHT22;5477;48.806;9.154;2024-03-17T08:34:46;11.30;99.90
10848;DHT22;5477;48.806;9.154;2024-03-17T08:37:13;11.30;99.90
10848;DHT22;5477;48.806;9.154;2024-03-17T08:39:42;11.30;99.90
10848;DHT22;5477;48.806;9.154;2024-03-17T08:42:09;11.40;99.90
10848;DHT22;5477;48.806;9.154;2024-03-17T08:44:36;11.50;99.90
10848;DHT22;5477;48.806;9.154;2024-03-17T08:47:03;11.60;99.90
10848;DHT22;5477;48.806;9.154;2024-03-17T08:49:30;11.70;99.90
10848;DHT22;5477;48.806;9.154;2024-03-17T08:51:57;11.80;99.90
10848;DHT22;5477;48.806;9.154;2024-03-17T08:54:24;11.90;99.90
10848;DHT22;5477;48.806;9.154;2024-03-17T08:56:53;12.10;99.90
10848;DHT22;5477;48.806;9.154;2024-03-17T08:59:20;12.20;99.90
10848;DHT22;5477;48.806;9.154;2024-03-17T09:01:47;12.20;99.90
10848;DHT22;5477;48.806;9.154;2024-03-17T09:04:14;12.20;99.90
10848;DHT22;5477;48.806;9.154;2024-03-17T09:06:41;12.20;99.90
10848;DHT22;5477;48.806;9.154;2024-03-17T09:09:08;12.30;99.90
10848;DHT22;5477;48.806;9.154;2024-03-17T09:11:35;12.40;99.90
10848;DHT22;5477;48.806;9.154;2024-03-17T09:14:03;12.50;99.90
10848;DHT22;5477;48.806;9.154;2024-03-17T09:16:31;12.50;99.90
10848;DHT22;5477;48.806;9.154;2024-03-17T09:18:58;12.50;99.90
10848;DHT22;5477;48.806;9.154;2024-03-17T09:21:26;12.60;99.90
10848;DHT22;5477;48.806;9.154;2024-03-17T09:23:53;12.70;99.90
10848;DHT22;5477;48.806;9.154;2024-03-17T09:26:20;12.70;99.90
10848;DHT22;5477;48.806;9.154;2024-03-17T09:28:48;12.90;99.90
10848;DHT22;5477;48.806;9.154;2024-03-17T09:31:16;12.90;99.90
10848;DHT22;5477;48.806;9.154;2024-03-17T09:33:43;12.90;99.90
10848;DHT22;5477;48.806;9.154;2024-03-17T09:36:10;12.80;99.90
10848;DHT22;5477;48.806;9.154;2024-03-17T09:38:38;12.90;99.90
10848;DHT22;5477;48.806;9.154;2024-03-17T09:41:06;13.00;99.90
10848;DHT22;5477;48.806;9.154;2024-03-17T09:43:35;13.10;99.90
10848;DHT22;5477;48.806;9.154;2024-03-17T09:46:03;13.20;99.90
10848;DHT22;5477;48.806;9.154;2024-03-17T09:48:32;13.20;99.90
10848;DHT22;5477;48.806;9.154;2024-03-17T09:51:01;13.30;99.90
10848;DHT22;5477;48.806;9.154;2024-03-17T09:53:29;13.40;99.90
10848;DHT22;5477;48.806;9.154;2024-03-17T09:55:59;13.40;99.90
10848;DHT22;5477;48.806;9.154;2024-03-17T09:58:27;13.50;99.90
10848;DHT22;5477;48.806;9.154;2024-03-17T10:00:54;13.60;99.90
10848;DHT22;5477;48.806;9.154;2024-03-17T10:03:42;13.70;99.90
10848;DHT22;5477;48.806;9.154;2024-03-17T10:06:11;13.90;99.90
10848;DHT22;5477;48.806;9.154;2024-03-17T10:08:43;14.00;99.90
10848;DHT22;5477;48.806;9.154;2024-03-17T10:11:10;14.20;99.90
10848;DHT22;5477;48.806;9.154;2024-03-17T10:13:37;14.30;99.90
10848;DHT22;5477;48.806;9.154;2024-03-17T10:16:04;14.30;99.90
10848;DHT22;5477;48.806;9.154;2024-03-17T10:18:31;14.50;99.90
10848;DHT22;5477;48.806;9.154;2024-03-17T10:21:00;14.50;99.90
10848;DHT22;5477;48.806;9.154;2024-03-17T10:23:27;14.60;99.90
10848;DHT22;5477;48.806;9.154;2024-03-17T10:25:55;14.70;99.90
10848;DHT22;5477;48.806;9.154;2024-03-17T10:28:22;14.60;99.90
10848;DHT22;5477;48.806;9.154;2024-03-17T10:31:00;14.50;99.90
10848;DHT22;5477;48.806;9.154;2024-03-17T10:33:27;14.50;99.90
10848;DHT22;5477;48.806;9.154;2024-03-17T10:36:02;14.50;99.90
10848;DHT22;5477;48.806;9.154;2024-03-17T10:38:31;14.50;99.90
10848;DHT22;5477;48.806;9.154;2024-03-17T10:41:01;14.60;99.90
10848;DHT22;5477;48.806;9.154;2024-03-17T10:43:28;14.60;99.90
10848;DHT22;5477;48.806;9.154;2024-03-17T10:45:57;14.70;99.90
10848;DHT22;5477;48.806;9.154;2024-03-17T10:48:28;14.90;99.90
10848;DHT22;5477;48.806;9.154;2024-03-17T10:50:59;15.20;99.90
10848;DHT22;5477;48.806;9.154;2024-03-17T10:53:28;15.40;99.90
10848;DHT22;5477;48.806;9.154;2024-03-17T10:56:03;15.60;99.90
10848;DHT22;5477;48.806;9.154;2024-03-17T10:58:34;15.70;99.90
10848;DHT22;5477;48.806;9.154;2024-03-17T11:01:03;16.00;99.90
10848;DHT22;5477;48.806;9.154;2024-03-17T11:03:31;16.00;99.90
10848;DHT22;5477;48.806;9.154;2024-03-17T11:05:59;15.70;99.90
10848;DHT22;5477;48.806;9.154;2024-03-17T11:08:32;15.50;99.90
10848;DHT22;5477;48.806;9.154;2024-03-17T11:11:00;15.80;99.90
10848;DHT22;5477;48.806;9.154;2024-03-17T11:13:28;16.00;99.90
10848;DHT22;5477;48.806;9.154;2024-03-17T11:15:56;16.00;99.90
10848;DHT22;5477;48.806;9.154;2024-03-17T11:18:39;15.80;99.90
10848;DHT22;5477;48.806;9.154;2024-03-17T11:24:02;15.50;99.90
10848;DHT22;5477;48.806;9.154;2024-03-17T11:26:32;15.50;99.90
10848;DHT22;5477;48.806;9.154;2024-03-17T11:28:59;15.40;99.90
10848;DHT22;5477;48.806;9.154;2024-03-17T11:31:40;15.30;99.90
10848;DHT22;5477;48.806;9.154;2024-03-17T11:36:50;15.60;99.90
10848;DHT22;5477;48.806;9.154;2024-03-17T11:39:18;15.70;99.90
10848;DHT22;5477;48.806;9.154;2024-03-17T11:41:47;15.80;99.90
10848;DHT22;5477;48.806;9.154;2024-03-17T11:44:24;15.60;99.90
10848;DHT22;5477;48.806;9.154;2024-03-17T11:46:54;15.50;99.90
10848;DHT22;5477;48.806;9.154;2024-03-17T11:49:23;15.70;99.90
10848;DHT22;5477;48.806;9.154;2024-03-17T11:51:52;15.70;99.90
10848;DHT22;5477;48.806;9.154;2024-03-17T11:54:22;15.60;99.90
10848;DHT22;5477;48.806;9.154;2024-03-17T11:56:51;15.50;99.90
10848;DHT22;5477;48.806;9.154;2024-03-17T11:59:18;15.60;99.90
10848;DHT22;5477;48.806;9.154;2024-03-17T12:01:46;15.70;99.90
10848;DHT22;5477;48.806;9.154;2024-03-17T12:04:14;15.80;99.90
10848;DHT22;5477;48.806;9.154;2024-03-17T12:06:44;15.80;99.90
10848;DHT22;5477;48.806;9.154;2024-03-17T12:09:18;15.70;99.90
10848;DHT22;5477;48.806;9.154;2024-03-17T12:11:48;15.70;99.90
10848;DHT22;5477;48.806;9.154;2024-03-17T12:14:19;15.70;99.90
10848;DHT22;5477;48.806;9.154;2024-03-17T12:16:47;15.40;99.90
10848;DHT22;5477;48.806;9.154;2024-03-17T12:19:14;15.40;99.90
10848;DHT22;5477;48.806;9.154;2024-03-17T12:21:44;15.50;99.90
10848;DHT22;5477;48.806;9.154;2024-03-17T12:24:15;15.70;99.90
10848;DHT22;5477;48.806;9.154;2024-03-17T12:26:43;15.80;99.90
10848;DHT22;5477;48.806;9.154;2024-03-17T12:29:25;15.90;99.90
10848;DHT22;5477;48.806;9.154;2024-03-17T12:31:54;16.10;99.90
10848;DHT22;5477;48.806;9.154;2024-03-17T12:34:22;16.20;99.90
10848;DHT22;5477;48.806;9.154;2024-03-17T12:36:50;16.30;99.90
10848;DHT22;5477;48.806;9.154;2024-03-17T12:39:18;16.40;99.90
10848;DHT22;5477;48.806;9.154;2024-03-17T12:42:01;16.50;99.90
10848;DHT22;5477;48.806;9.154;2024-03-17T12:44:29;16.60;99.90
10848;DHT22;5477;48.806;9.154;2024-03-17T12:46:57;16.60;99.90
10848;DHT22;5477;48.806;9.154;2024-03-17T12:49:23;16.30;99.90
10848;DHT22;5477;48.806;9.154;2024-03-17T12:51:53;16.10;99.90
10848;DHT22;5477;48.806;9.154;2024-03-17T12:54:23;16.10;99.90
10848;DHT22;5477;48.806;9.154;2024-03-17T12:56:51;16.20;99.90
10848;DHT22;5477;48.806;9.154;2024-03-17T12:59:43;16.40;99.90
10848;DHT22;5477;48.806;9.154;2024-03-17T13:02:28;16.30;99.90
10848;DHT22;5477;48.806;9.154;2024-03-17T13:05:16;16.20;99.90
10848;DHT22;5477;48.806;9.154;2024-03-17T13:07:45;16.10;99.90
10848;DHT22;5477;48.806;9.154;2024-03-17T13:10:14;16.20;99.90
10848;DHT22;5477;48.806;9.154;2024-03-17T13:12:43;16.20;99.90
10848;DHT22;5477;48.806;9.154;2024-03-17T13:15:13;16.10;99.90
10848;DHT22;5477;48.806;9.154;2024-03-17T13:17:42;15.80;99.90
10848;DHT22;5477;48.806;9.154;2024-03-17T13:20:13;15.80;99.90
10848;DHT22;5477;48.806;9.154;2024-03-17T13:22:41;15.80;99.90
10848;DHT22;5477;48.806;9.154;2024-03-17T13:25:14;15.80;99.90
10848;DHT22;5477;48.806;9.154;2024-03-17T13:27:42;15.90;99.90
10848;DHT22;5477;48.806;9.154;2024-03-17T13:30:09;16.00;99.90
10848;DHT22;5477;48.806;9.154;2024-03-17T13:32:38;16.00;99.90
10848;DHT22;5477;48.806;9.154;2024-03-17T13:35:06;16.10;99.90
10848;DHT22;5477;48.806;9.154;2024-03-17T13:37:35;16.20;99.90
10848;DHT22;5477;48.806;9.154;2024-03-17T13:40:04;16.40;99.90
10848;DHT22;5477;48.806;9.154;2024-03-17T13:42:32;16.40;99.90
10848;DHT22;5477;48.806;9.154;2024-03-17T13:45:00;16.50;99.90
10848;DHT22;5477;48.806;9.154;2024-03-17T13:47:27;16.70;99.90
10848;DHT22;5477;48.806;9.154;2024-03-17T13:49:56;16.60;99.90
10848;DHT22;5477;48.806;9.154;2024-03-17T13:52:24;16.50;99.90
10848;DHT22;5477;48.806;9.154;2024-03-17T13:54:52;16.50;99.90
10848;DHT22;5477;48.806;9.154;2024-03-17T13:57:19;16.30;99.90
10848;DHT22;5477;48.806;9.154;2024-03-17T13:59:46;16.30;99.90
10848;DHT22;5477;48.806;9.154;2024-03-17T14:02:14;16.30;99.90
10848;DHT22;5477;48.806;9.154;2024-03-17T14:04:41;16.20;99.90
10848;DHT22;5477;48.806;9.154;2024-03-17T14:07:09;16.30;99.90
10848;DHT22;5477;48.806;9.154;2024-03-17T14:09:35;16.30;99.90
10848;DHT22;5477;48.806;9.154;2024-03-17T14:12:03;16.50;99.90
10848;DHT22;5477;48.806;9.154;2024-03-17T14:14:30;16.50;99.90
10848;DHT22;5477;48.806;9.154;2024-03-17T14:16:57;16.60;99.90
10848;DHT22;5477;48.806;9.154;2024-03-17T14:19:24;16.40;99.90
10848;DHT22;5477;48.806;9.154;2024-03-17T14:21:51;16.30;99.90
10848;DHT22;5477;48.806;9.154;2024-03-17T14:24:19;16.30;99.90
10848;DHT22;5477;48.806;9.154;2024-03-17T14:26:47;16.60;99.90
10848;DHT22;5477;48.806;9.154;2024-03-17T14:29:14;16.80;99.90
10848;DHT22;5477;48.806;9.154;2024-03-17T14:31:43;16.90;99.90
10848;DHT22;5477;48.806;9.154;2024-03-17T14:34:11;17.10;99.90
10848;DHT22;5477;48.806;9.154;2024-03-17T14:36:38;17.40;99.20
10848;DHT22;5477;48.806;9.154;2024-03-17T14:39:05;17.70;98.60
10848;DHT22;5477;48.806;9.154;2024-03-17T14:41:35;17.90;97.90
10848;DHT22;5477;48.806;9.154;2024-03-17T14:44:02;18.00;97.60
10848;DHT22;5477;48.806;9.154;2024-03-17T14:46:30;18.00;97.50
10848;DHT22;5477;48.806;9.154;2024-03-17T14:48:57;18.00;97.30
10848;DHT22;5477;48.806;9.154;2024-03-17T14:51:24;18.10;97.50
10848;DHT22;5477;48.806;9.154;2024-03-17T14:53:52;18.10;97.10
10848;DHT22;5477;48.806;9.154;2024-03-17T14:56:19;18.00;96.80
10848;DHT22;5477;48.806;9.154;2024-03-17T14:58:47;17.90;97.10
10848;DHT22;5477;48.806;9.154;2024-03-17T15:01:15;18.10;97.00
10848;DHT22;5477;48.806;9.154;2024-03-17T15:03:42;18.50;96.30
10848;DHT22;5477;48.806;9.154;2024-03-17T15:06:11;18.90;95.70
10848;DHT22;5477;48.806;9.154;2024-03-17T15:08:40;18.90;95.10
10848;DHT22;5477;48.806;9.154;2024-03-17T15:11:07;19.50;94.40
10848;DHT22;5477;48.806;9.154;2024-03-17T15:13:35;20.30;93.30
10848;DHT22;5477;48.806;9.154;2024-03-17T15:16:04;20.60;92.20
10848;DHT22;5477;48.806;9.154;2024-03-17T15:18:31;20.50;92.00
10848;DHT22;5477;48.806;9.154;2024-03-17T15:20:59;20.10;91.30
10848;DHT22;5477;48.806;9.154;2024-03-17T15:23:26;19.70;92.10
10848;DHT22;5477;48.806;9.154;2024-03-17T15:26:00;19.50;92.70
10848;DHT22;5477;48.806;9.154;2024-03-17T15:28:32;19.20;93.20
10848;DHT22;5477;48.806;9.154;2024-03-17T15:30:59;19.10;92.80
10848;DHT22;5477;48.806;9.154;2024-03-17T15:33:29;18.80;93.50
10848;DHT22;5477;48.806;9.154;2024-03-17T15:35:56;18.50;94.20
10848;DHT22;5477;48.806;9.154;2024-03-17T15:38:23;18.00;95.00
10848;DHT22;5477;48.806;9.154;2024-03-17T15:40:51;17.70;95.50
10848;DHT22;5477;48.806;9.154;2024-03-17T15:43:18;17.20;96.50
10848;DHT22;5477;48.806;9.154;2024-03-17T15:45:45;16.90;97.50
10848;DHT22;5477;48.806;9.154;2024-03-17T15:48:12;16.60;98.00
10848;DHT22;5477;48.806;9.154;2024-03-17T15:50:40;16.50;98.50
10848;DHT22;5477;48.806;9.154;2024-03-17T15:53:08;16.30;99.00
10848;DHT22;5477;48.806;9.154;2024-03-17T15:55:36;16.30;99.20
10848;DHT22;5477;48.806;9.154;2024-03-17T15:58:03;16.20;99.40
10848;DHT22;5477;48.806;9.154;2024-03-17T16:00:31;16.20;99.30
10848;DHT22;5477;48.806;9.154;2024-03-17T16:02:58;16.10;99.60
10848;DHT22;5477;48.806;9.154;2024-03-17T16:05:26;16.00;99.90
10848;DHT22;5477;48.806;9.154;2024-03-17T16:07:54;15.90;99.90